sensor_id;sensor_type;location;lat;lon;timestamp;pressure;altitude;pressure_sealevel;temperature;humidity
30730;BME280;17476;48.458;7.928;2022-12-16T00:01:43;98793.50;;;0.90;95.15
30730;BME280;17476;48.458;7.928;2022-12-16T00:04:09;98793.88;;;0.86;95.67
30730;BME280;17476;48.458;7.928;2022-12-16T00:06:34;98799.69;;;0.88;95.78
30730;BME280;17476;48.458;7.928;2022-12-16T00:09:00;98807.72;;;0.94;96.42
30730;BME280;17476;48.458;7.928;2022-12-16T00:11:26;98813.16;;;1.01;96.50
30730;BME280;17476;48.458;7.928;2022-12-16T00:13:52;98823.75;;;1.07;96.93
30730;BME280;17476;48.458;7.928;2022-12-16T00:16:19;98821.59;;;1.13;96.60
30730;BME280;17476;48.458;7.928;2022-12-16T00:18:46;98829.31;;;1.13;95.67
30730;BME280;17476;48.458;7.928;2022-12-16T00:21:13;98826.75;;;1.13;96.09
30730;BME280;17476;48.458;7.928;2022-12-16T00:23:39;98828.00;;;1.18;95.98
30730;BME280;17476;48.458;7.928;2022-12-16T00:26:09;98823.09;;;1.15;95.82
30730;BME280;17476;48.458;7.928;2022-12-16T00:28:36;98823.09;;;1.15;95.88
30730;BME280;17476;48.458;7.928;2022-12-16T00:31:03;98824.19;;;1.13;95.66
30730;BME280;17476;48.458;7.928;2022-12-16T00:33:29;98811.59;;;1.09;95.42
30730;BME280;17476;48.458;7.928;2022-12-16T00:35:55;98809.53;;;1.13;95.75
30730;BME280;17476;48.458;7.928;2022-12-16T00:38:24;98809.41;;;1.15;95.67
30730;BME280;17476;48.458;7.928;2022-12-16T00:40:50;98811.06;;;1.16;95.20
30730;BME280;17476;48.458;7.928;2022-12-16T00:43:16;98811.06;;;1.16;94.97
30730;BME280;17476;48.458;7.928;2022-12-16T00:45:44;98812.69;;;1.17;94.92
30730;BME280;17476;48.458;7.928;2022-12-16T00:48:10;98818.22;;;1.12;94.53
30730;BME280;17476;48.458;7.928;2022-12-16T00:50:36;98829.31;;;1.13;94.63
30730;BME280;17476;48.458;7.928;2022-12-16T00:53:04;98841.53;;;1.11;94.96
30730;BME280;17476;48.458;7.928;2022-12-16T00:55:30;98836.09;;;1.14;96.02
30730;BME280;17476;48.458;7.928;2022-12-16T00:57:55;98840.19;;;1.16;95.75
30730;BME280;17476;48.458;7.928;2022-12-16T01:00:22;98842.50;;;1.19;95.63
30730;BME280;17476;48.458;7.928;2022-12-16T01:02:49;98846.69;;;1.20;95.71
30730;BME280;17476;48.458;7.928;2022-12-16T01:05:19;98849.25;;;1.20;96.22
30730;BME280;17476;48.458;7.928;2022-12-16T01:07:46;98845.06;;;1.19;95.33
30730;BME280;17476;48.458;7.928;2022-12-16T01:10:12;98835.72;;;1.18;95.27
30730;BME280;17476;48.458;7.928;2022-12-16T01:12:38;98842.63;;;1.18;95.77
30730;BME280;17476;48.458;7.928;2022-12-16T01:15:06;98853.59;;;1.20;95.61
30730;BME280;17476;48.458;7.928;2022-12-16T01:17:32;98851.84;;;1.20;95.44
30730;BME280;17476;48.458;7.928;2022-12-16T01:20:00;98859.97;;;1.16;94.93
30730;BME280;17476;48.458;7.928;2022-12-16T01:22:30;98867.81;;;1.14;95.67
30730;BME280;17476;48.458;7.928;2022-12-16T01:24:58;98863.88;;;1.10;95.18
30730;BME280;17476;48.458;7.928;2022-12-16T01:27:25;98867.91;;;1.03;95.05
30730;BME280;17476;48.458;7.928;2022-12-16T01:29:51;98861.00;;;1.03;95.71
30730;BME280;17476;48.458;7.928;2022-12-16T01:32:18;98876.66;;;0.91;95.19
30730;BME280;17476;48.458;7.928;2022-12-16T01:34:52;98872.78;;;0.96;96.28
30730;BME280;17476;48.458;7.928;2022-12-16T01:37:18;98874.91;;;0.91;95.38
30730;BME280;17476;48.458;7.928;2022-12-16T01:39:45;98881.00;;;0.90;95.78
30730;BME280;17476;48.458;7.928;2022-12-16T01:42:20;98881.00;;;0.90;96.28
30730;BME280;17476;48.458;7.928;2022-12-16T01:44:49;98881.81;;;0.91;96.38
30730;BME280;17476;48.458;7.928;2022-12-16T01:47:19;98881.69;;;0.92;96.38
30730;BME280;17476;48.458;7.928;2022-12-16T01:50:13;98885.75;;;0.95;95.85
30730;BME280;17476;48.458;7.928;2022-12-16T01:52:48;98893.59;;;0.93;95.23
30730;BME280;17476;48.458;7.928;2022-12-16T01:55:41;98885.06;;;0.93;95.06
30730;BME280;17476;48.458;7.928;2022-12-16T01:58:16;98891.16;;;0.92;95.78
30730;BME280;17476;48.458;7.928;2022-12-16T02:00:43;98894.81;;;0.89;95.14
30730;BME280;17476;48.458;7.928;2022-12-16T02:03:09;98897.25;;;0.91;94.61
30730;BME280;17476;48.458;7.928;2022-12-16T02:05:39;98908.19;;;0.83;94.12
30730;BME280;17476;48.458;7.928;2022-12-16T02:25:35;98913.16;;;0.75;95.76
30730;BME280;17476;48.458;7.928;2022-12-16T02:31:59;98919.13;;;0.75;96.28
30730;BME280;17476;48.458;7.928;2022-12-16T02:35:27;98918.84;;;0.78;96.04
30730;BME280;17476;48.458;7.928;2022-12-16T02:40:45;98930.59;;;0.71;95.79
30730;BME280;17476;48.458;7.928;2022-12-16T02:45:58;98938.50;;;0.59;95.77
30730;BME280;17476;48.458;7.928;2022-12-16T02:48:24;98949.28;;;0.52;96.15
30730;BME280;17476;48.458;7.928;2022-12-16T02:50:51;98952.56;;;0.54;96.65
30730;BME280;17476;48.458;7.928;2022-12-16T02:53:18;98960.69;;;0.60;96.30
30730;BME280;17476;48.458;7.928;2022-12-16T02:56:05;98960.97;;;0.57;95.63
30730;BME280;17476;48.458;7.928;2022-12-16T02:59:07;98953.94;;;0.59;95.06
30730;BME280;17476;48.458;7.928;2022-12-16T03:02:24;98958.88;;;0.50;96.19
30730;BME280;17476;48.458;7.928;2022-12-16T03:05:24;98959.75;;;0.61;95.93
30730;BME280;17476;48.458;7.928;2022-12-16T03:07:53;98955.56;;;0.60;95.13
30730;BME280;17476;48.458;7.928;2022-12-16T03:10:26;98959.06;;;0.59;95.49
30730;BME280;17476;48.458;7.928;2022-12-16T03:12:55;98967.16;;;0.54;96.55
30730;BME280;17476;48.458;7.928;2022-12-16T03:15:25;98975.00;;;0.52;95.79
30730;BME280;17476;48.458;7.928;2022-12-16T03:17:54;98970.66;;;0.53;96.00
30730;BME280;17476;48.458;7.928;2022-12-16T03:20:29;98974.50;;;0.59;95.83
30730;BME280;17476;48.458;7.928;2022-12-16T03:23:02;98981.53;;;0.57;95.68
30730;BME280;17476;48.458;7.928;2022-12-16T03:25:33;98979.09;;;0.55;96.16
30730;BME280;17476;48.458;7.928;2022-12-16T03:31:24;98981.53;;;0.57;95.78
30730;BME280;17476;48.458;7.928;2022-12-16T03:34:02;98983.63;;;0.63;96.31
30730;BME280;17476;48.458;7.928;2022-12-16T03:36:35;98987.00;;;0.63;96.06
30730;BME280;17476;48.458;7.928;2022-12-16T03:39:03;98989.31;;;0.66;96.18
30730;BME280;17476;48.458;7.928;2022-12-16T03:41:31;98992.47;;;0.70;96.08
30730;BME280;17476;48.458;7.928;2022-12-16T03:43:58;98995.28;;;0.67;96.35
30730;BME280;17476;48.458;7.928;2022-12-16T03:46:24;98999.94;;;0.73;96.18
30730;BME280;17476;48.458;7.928;2022-12-16T03:48:51;98995.50;;;0.75;96.44
30730;BME280;17476;48.458;7.928;2022-12-16T03:51:18;98995.22;;;0.78;96.26
30730;BME280;17476;48.458;7.928;2022-12-16T03:53:45;98997.53;;;0.81;96.20
30730;BME280;17476;48.458;7.928;2022-12-16T03:56:11;99003.13;;;0.86;95.75
30730;BME280;17476;48.458;7.928;2022-12-16T03:58:38;99001.50;;;0.85;95.57
30730;BME280;17476;48.458;7.928;2022-12-16T04:01:08;99009.91;;;0.87;95.28
30730;BME280;17476;48.458;7.928;2022-12-16T04:03:36;99018.25;;;0.79;95.16
30730;BME280;17476;48.458;7.928;2022-12-16T04:06:02;99015.56;;;0.81;94.78
30730;BME280;17476;48.458;7.928;2022-12-16T04:08:28;99020.69;;;0.81;94.98
30730;BME280;17476;48.458;7.928;2022-12-16T04:10:54;99023.84;;;0.85;94.55
30730;BME280;17476;48.458;7.928;2022-12-16T04:13:39;99031.25;;;0.78;94.54
30730;BME280;17476;48.458;7.928;2022-12-16T04:16:26;99036.41;;;0.78;94.11
30730;BME280;17476;48.458;7.928;2022-12-16T04:19:31;99037.03;;;0.70;94.57
30730;BME280;17476;48.458;7.928;2022-12-16T04:22:39;99033.38;;;0.73;95.49
30730;BME280;17476;48.458;7.928;2022-12-16T04:25:28;99034.91;;;0.75;95.09
30730;BME280;17476;48.458;7.928;2022-12-16T04:27:56;99035.72;;;0.76;95.27
30730;BME280;17476;48.458;7.928;2022-12-16T04:30:24;99031.63;;;0.73;94.94
30730;BME280;17476;48.458;7.928;2022-12-16T04:33:08;99036.53;;;0.76;94.66
30730;BME280;17476;48.458;7.928;2022-12-16T04:35:53;99046.38;;;0.71;95.04
30730;BME280;17476;48.458;7.928;2022-12-16T04:38:38;99048.50;;;0.66;94.18
30730;BME280;17476;48.458;7.928;2022-12-16T04:41:23;99056.34;;;0.65;94.76
30730;BME280;17476;48.458;7.928;2022-12-16T04:44:08;99062.56;;;0.62;94.84
30730;BME280;17476;48.458;7.928;2022-12-16T04:46:52;99066.06;;;0.61;95.04
30730;BME280;17476;48.458;7.928;2022-12-16T04:49:37;99063.25;;;0.64;94.31
30730;BME280;17476;48.458;7.928;2022-12-16T04:52:22;99069.88;;;0.67;94.74
30730;BME280;17476;48.458;7.928;2022-12-16T04:55:07;99064.19;;;0.63;94.91
30730;BME280;17476;48.458;7.928;2022-12-16T04:58:02;99068.50;;;0.63;95.41
30730;BME280;17476;48.458;7.928;2022-12-16T05:00:48;99078.09;;;0.61;95.61
30730;BME280;17476;48.458;7.928;2022-12-16T05:03:33;99078.13;;;0.49;94.71
30730;BME280;17476;48.458;7.928;2022-12-16T05:06:18;99078.28;;;0.48;94.36
30730;BME280;17476;48.458;7.928;2022-12-16T05:09:03;99086.19;;;0.56;95.76
30730;BME280;17476;48.458;7.928;2022-12-16T05:11:48;99083.16;;;0.51;94.17
30730;BME280;17476;48.458;7.928;2022-12-16T05:14:32;99091.22;;;0.58;94.67
30730;BME280;17476;48.458;7.928;2022-12-16T05:17:17;99095.66;;;0.56;94.03
30730;BME280;17476;48.458;7.928;2022-12-16T05:20:02;99106.19;;;0.52;94.85
30730;BME280;17476;48.458;7.928;2022-12-16T05:22:46;99111.53;;;0.61;94.85
30730;BME280;17476;48.458;7.928;2022-12-16T05:25:31;99110.16;;;0.57;94.11
30730;BME280;17476;48.458;7.928;2022-12-16T05:28:15;99114.50;;;0.45;93.56
30730;BME280;17476;48.458;7.928;2022-12-16T05:31:00;99121.59;;;0.52;94.67
30730;BME280;17476;48.458;7.928;2022-12-16T05:33:45;99133.88;;;0.60;95.00
30730;BME280;17476;48.458;7.928;2022-12-16T05:36:29;99139.13;;;0.59;94.89
30730;BME280;17476;48.458;7.928;2022-12-16T05:39:13;99140.91;;;0.58;94.25
30730;BME280;17476;48.458;7.928;2022-12-16T05:41:57;99140.22;;;0.56;93.91
30730;BME280;17476;48.458;7.928;2022-12-16T05:44:42;99148.41;;;0.61;94.86
30730;BME280;17476;48.458;7.928;2022-12-16T05:47:26;99160.31;;;0.62;94.67
30730;BME280;17476;48.458;7.928;2022-12-16T05:50:11;99166.03;;;0.66;94.83
30730;BME280;17476;48.458;7.928;2022-12-16T05:52:56;99176.56;;;0.63;94.15
30730;BME280;17476;48.458;7.928;2022-12-16T05:55:41;99170.81;;;0.59;94.11
30730;BME280;17476;48.458;7.928;2022-12-16T05:58:27;99180.06;;;0.62;94.64
30730;BME280;17476;48.458;7.928;2022-12-16T06:01:11;99179.00;;;0.64;94.60
30730;BME280;17476;48.458;7.928;2022-12-16T06:03:56;99185.44;;;0.70;94.47
30730;BME280;17476;48.458;7.928;2022-12-16T06:06:40;99179.34;;;0.71;94.24
30730;BME280;17476;48.458;7.928;2022-12-16T06:09:25;99187.19;;;0.69;94.13
30730;BME280;17476;48.458;7.928;2022-12-16T06:12:09;99188.97;;;0.58;92.68
30730;BME280;17476;48.458;7.928;2022-12-16T06:14:54;99205.56;;;0.53;92.92
30730;BME280;17476;48.458;7.928;2022-12-16T06:17:46;99205.81;;;0.50;93.75
30730;BME280;17476;48.458;7.928;2022-12-16T06:20:31;99210.59;;;0.55;94.27
30730;BME280;17476;48.458;7.928;2022-12-16T06:23:16;99210.13;;;0.61;94.24
30730;BME280;17476;48.458;7.928;2022-12-16T06:26:00;99208.38;;;0.62;94.24
30730;BME280;17476;48.458;7.928;2022-12-16T06:28:45;99207.91;;;0.68;94.43
30730;BME280;17476;48.458;7.928;2022-12-16T06:31:29;99210.00;;;0.63;92.75
30730;BME280;17476;48.458;7.928;2022-12-16T06:34:14;99220.31;;;0.63;93.79
30730;BME280;17476;48.458;7.928;2022-12-16T06:36:58;99225.78;;;0.69;94.10
30730;BME280;17476;48.458;7.928;2022-12-16T06:39:42;99230.22;;;0.67;93.58
30730;BME280;17476;48.458;7.928;2022-12-16T06:42:26;99230.13;;;0.69;93.71
30730;BME280;17476;48.458;7.928;2022-12-16T06:45:11;99229.88;;;0.72;93.87
30730;BME280;17476;48.458;7.928;2022-12-16T06:48:06;99239.47;;;0.70;93.12
30730;BME280;17476;48.458;7.928;2022-12-16T06:50:51;99253.97;;;0.71;93.26
30730;BME280;17476;48.458;7.928;2022-12-16T06:53:35;99256.41;;;0.72;93.49
30730;BME280;17476;48.458;7.928;2022-12-16T06:56:20;99255.00;;;0.79;93.24
30730;BME280;17476;48.458;7.928;2022-12-16T06:59:04;99263.09;;;0.75;91.94
30730;BME280;17476;48.458;7.928;2022-12-16T07:01:49;99261.00;;;0.69;91.82
30730;BME280;17476;48.458;7.928;2022-12-16T07:04:34;99267.91;;;0.68;92.53
30730;BME280;17476;48.458;7.928;2022-12-16T07:07:18;99274.81;;;0.68;92.12
30730;BME280;17476;48.458;7.928;2022-12-16T07:10:03;99275.72;;;0.67;92.37
30730;BME280;17476;48.458;7.928;2022-12-16T07:12:47;99280.03;;;0.66;92.43
30730;BME280;17476;48.458;7.928;2022-12-16T07:15:31;99290.34;;;0.66;92.14
30730;BME280;17476;48.458;7.928;2022-12-16T07:18:16;99294.78;;;0.64;92.14
30730;BME280;17476;48.458;7.928;2022-12-16T07:21:00;99303.91;;;0.68;92.30
30730;BME280;17476;48.458;7.928;2022-12-16T07:23:44;99307.53;;;0.66;92.05
30730;BME280;17476;48.458;7.928;2022-12-16T07:26:28;99316.19;;;0.65;92.15
30730;BME280;17476;48.458;7.928;2022-12-16T07:29:17;99317.94;;;0.64;91.95
30730;BME280;17476;48.458;7.928;2022-12-16T07:32:01;99322.28;;;0.64;91.95
30730;BME280;17476;48.458;7.928;2022-12-16T07:34:46;99325.66;;;0.64;91.61
30730;BME280;17476;48.458;7.928;2022-12-16T07:37:30;99338.66;;;0.63;91.65
30730;BME280;17476;48.458;7.928;2022-12-16T07:40:15;99341.22;;;0.63;91.57
30730;BME280;17476;48.458;7.928;2022-12-16T07:42:59;99355.84;;;0.62;91.30
30730;BME280;17476;48.458;7.928;2022-12-16T07:45:45;99361.19;;;0.59;91.36
30730;BME280;17476;48.458;7.928;2022-12-16T07:48:29;99359.56;;;0.58;91.30
30730;BME280;17476;48.458;7.928;2022-12-16T07:51:14;99371.72;;;0.56;91.05
30730;BME280;17476;48.458;7.928;2022-12-16T07:53:58;99377.69;;;0.57;90.94
30730;BME280;17476;48.458;7.928;2022-12-16T07:56:42;99382.00;;;0.56;90.60
30730;BME280;17476;48.458;7.928;2022-12-16T07:59:26;99385.53;;;0.55;90.82
30730;BME280;17476;48.458;7.928;2022-12-16T08:02:10;99398.28;;;0.57;91.38
30730;BME280;17476;48.458;7.928;2022-12-16T08:04:55;99404.22;;;0.57;91.37
30730;BME280;17476;48.458;7.928;2022-12-16T08:07:40;99412.06;;;0.56;91.71
30730;BME280;17476;48.458;7.928;2022-12-16T08:10:24;99416.28;;;0.57;92.00
30730;BME280;17476;48.458;7.928;2022-12-16T08:13:09;99417.09;;;0.57;91.74
30730;BME280;17476;48.458;7.928;2022-12-16T08:15:53;99423.84;;;0.47;91.63
30730;BME280;17476;48.458;7.928;2022-12-16T08:18:37;99425.38;;;0.49;92.05
30730;BME280;17476;48.458;7.928;2022-12-16T08:21:22;99428.78;;;0.50;91.95
30730;BME280;17476;48.458;7.928;2022-12-16T08:24:06;99429.34;;;0.42;91.57
30730;BME280;17476;48.458;7.928;2022-12-16T08:26:50;99437.63;;;0.46;91.91
30730;BME280;17476;48.458;7.928;2022-12-16T08:29:35;99436.00;;;0.45;92.06
30730;BME280;17476;48.458;7.928;2022-12-16T08:32:20;99436.59;;;0.48;92.44
30730;BME280;17476;48.458;7.928;2022-12-16T08:35:05;99436.59;;;0.48;92.01
30730;BME280;17476;48.458;7.928;2022-12-16T08:37:54;99441.13;;;0.45;92.02
30730;BME280;17476;48.458;7.928;2022-12-16T08:40:42;99449.66;;;0.45;92.12
30730;BME280;17476;48.458;7.928;2022-12-16T08:43:31;99449.56;;;0.47;92.15
30730;BME280;17476;48.458;7.928;2022-12-16T08:46:16;99457.19;;;0.48;91.38
30730;BME280;17476;48.458;7.928;2022-12-16T08:49:00;99457.88;;;0.50;91.47
30730;BME280;17476;48.458;7.928;2022-12-16T08:51:44;99455.50;;;0.47;91.44
30730;BME280;17476;48.458;7.928;2022-12-16T08:54:29;99462.91;;;0.52;91.58
30730;BME280;17476;48.458;7.928;2022-12-16T08:57:13;99468.66;;;0.56;91.29
30730;BME280;17476;48.458;7.928;2022-12-16T08:59:57;99466.22;;;0.65;90.55
30730;BME280;17476;48.458;7.928;2022-12-16T09:02:42;99477.22;;;0.67;90.56
30730;BME280;17476;48.458;7.928;2022-12-16T09:05:27;99479.59;;;0.70;90.38
30730;BME280;17476;48.458;7.928;2022-12-16T09:08:11;99483.34;;;0.77;90.05
30730;BME280;17476;48.458;7.928;2022-12-16T09:11:00;99485.34;;;0.85;89.85
30730;BME280;17476;48.458;7.928;2022-12-16T09:13:44;99495.91;;;0.93;89.69
30730;BME280;17476;48.458;7.928;2022-12-16T09:16:29;99501.22;;;1.03;89.17
30730;BME280;17476;48.458;7.928;2022-12-16T09:19:13;99503.50;;;0.95;85.77
30730;BME280;17476;48.458;7.928;2022-12-16T09:21:58;99505.38;;;0.93;87.77
30730;BME280;17476;48.458;7.928;2022-12-16T09:24:42;99504.34;;;1.06;88.21
30730;BME280;17476;48.458;7.928;2022-12-16T09:27:26;99500.38;;;1.14;87.32
30730;BME280;17476;48.458;7.928;2022-12-16T09:30:11;99501.47;;;1.33;88.01
30730;BME280;17476;48.458;7.928;2022-12-16T09:33:01;99511.91;;;1.54;86.81
30730;BME280;17476;48.458;7.928;2022-12-16T09:35:45;99518.84;;;1.76;86.01
30730;BME280;17476;48.458;7.928;2022-12-16T09:38:30;99527.59;;;1.96;84.54
30730;BME280;17476;48.458;7.928;2022-12-16T09:41:41;99525.56;;;2.22;83.35
30730;BME280;17476;48.458;7.928;2022-12-16T09:45:02;99535.59;;;2.47;82.90
30730;BME280;17476;48.458;7.928;2022-12-16T09:48:28;99532.00;;;2.71;80.12
30730;BME280;17476;48.458;7.928;2022-12-16T09:51:15;99536.38;;;2.91;80.06
30730;BME280;17476;48.458;7.928;2022-12-16T09:54:00;99534.84;;;3.10;79.07
30730;BME280;17476;48.458;7.928;2022-12-16T09:56:47;99530.72;;;3.39;78.89
30730;BME280;17476;48.458;7.928;2022-12-16T09:59:40;99531.88;;;3.56;77.30
30730;BME280;17476;48.458;7.928;2022-12-16T10:02:41;99529.31;;;3.66;74.37
30730;BME280;17476;48.458;7.928;2022-12-16T10:05:58;99531.31;;;3.83;75.60
30730;BME280;17476;48.458;7.928;2022-12-16T10:09:26;99543.66;;;4.10;74.84
30730;BME280;17476;48.458;7.928;2022-12-16T10:13:16;99531.47;;;4.41;74.29
30730;BME280;17476;48.458;7.928;2022-12-16T10:16:47;99536.50;;;4.72;73.68
30730;BME280;17476;48.458;7.928;2022-12-16T10:29:29;99533.00;;;5.48;70.23
30730;BME280;17476;48.458;7.928;2022-12-16T10:32:37;99531.59;;;5.64;70.61
30730;BME280;17476;48.458;7.928;2022-12-16T10:35:35;99538.63;;;5.91;70.01
30730;BME280;17476;48.458;7.928;2022-12-16T10:41:27;99537.91;;;6.26;68.64
30730;BME280;17476;48.458;7.928;2022-12-16T10:44:54;99532.59;;;6.45;66.73
30730;BME280;17476;48.458;7.928;2022-12-16T10:47:41;99529.84;;;6.47;66.97
30730;BME280;17476;48.458;7.928;2022-12-16T10:50:25;99523.09;;;6.72;65.72
30730;BME280;17476;48.458;7.928;2022-12-16T10:53:21;99528.44;;;6.88;65.59
30730;BME280;17476;48.458;7.928;2022-12-16T10:56:38;99536.50;;;7.03;64.92
30730;BME280;17476;48.458;7.928;2022-12-16T10:59:36;99534.66;;;7.39;62.23
30730;BME280;17476;48.458;7.928;2022-12-16T11:02:24;99536.97;;;7.24;63.70
30730;BME280;17476;48.458;7.928;2022-12-16T11:05:32;99542.91;;;7.60;62.12
30730;BME280;17476;48.458;7.928;2022-12-16T11:08:29;99541.09;;;7.87;62.53
30730;BME280;17476;48.458;7.928;2022-12-16T11:11:25;99544.84;;;7.58;58.35
30730;BME280;17476;48.458;7.928;2022-12-16T11:14:29;99547.34;;;7.42;60.08
30730;BME280;17476;48.458;7.928;2022-12-16T11:17:19;99551.75;;;7.42;59.77
30730;BME280;17476;48.458;7.928;2022-12-16T11:20:20;99553.16;;;7.62;60.36
30730;BME280;17476;48.458;7.928;2022-12-16T11:23:24;99553.81;;;7.98;61.37
30730;BME280;17476;48.458;7.928;2022-12-16T11:29:22;99554.53;;;8.08;58.39
30730;BME280;17476;48.458;7.928;2022-12-16T11:32:21;99563.16;;;8.09;57.50
30730;BME280;17476;48.458;7.928;2022-12-16T11:35:14;99556.31;;;8.42;57.66
30730;BME280;17476;48.458;7.928;2022-12-16T11:38:01;99563.34;;;8.66;55.71
30730;BME280;17476;48.458;7.928;2022-12-16T11:40:49;99567.91;;;8.72;57.06
30730;BME280;17476;48.458;7.928;2022-12-16T11:43:36;99569.50;;;8.48;56.24
30730;BME280;17476;48.458;7.928;2022-12-16T11:46:28;99570.19;;;8.16;56.74
30730;BME280;17476;48.458;7.928;2022-12-16T11:49:32;99572.63;;;7.84;58.08
30730;BME280;17476;48.458;7.928;2022-12-16T11:52:20;99578.66;;;7.58;58.66
30730;BME280;17476;48.458;7.928;2022-12-16T11:55:24;99573.78;;;7.55;58.80
30730;BME280;17476;48.458;7.928;2022-12-16T12:01:16;99579.25;;;8.38;56.93
30730;BME280;17476;48.458;7.928;2022-12-16T12:04:02;99584.63;;;8.45;57.09
30730;BME280;17476;48.458;7.928;2022-12-16T12:10:13;99588.44;;;8.25;58.04
30730;BME280;17476;48.458;7.928;2022-12-16T12:22:37;99592.69;;;8.76;55.41
30730;BME280;17476;48.458;7.928;2022-12-16T12:25:35;99599.88;;;8.82;53.51
30730;BME280;17476;48.458;7.928;2022-12-16T12:34:54;99596.59;;;8.72;56.52
30730;BME280;17476;48.458;7.928;2022-12-16T12:37:49;99597.28;;;8.98;53.33
30730;BME280;17476;48.458;7.928;2022-12-16T12:41:13;99600.91;;;9.22;54.49
30730;BME280;17476;48.458;7.928;2022-12-16T12:47:25;99596.34;;;9.16;52.97
30730;BME280;17476;48.458;7.928;2022-12-16T12:50:24;99588.31;;;9.34;52.78
30730;BME280;17476;48.458;7.928;2022-12-16T12:54:07;99591.56;;;9.27;53.24
30730;BME280;17476;48.458;7.928;2022-12-16T12:56:57;99596.16;;;9.25;51.89
30730;BME280;17476;48.458;7.928;2022-12-16T13:05:38;99606.59;;;9.01;54.18
30730;BME280;17476;48.458;7.928;2022-12-16T13:11:36;99623.59;;;8.55;54.16
30730;BME280;17476;48.458;7.928;2022-12-16T13:17:23;99631.25;;;7.88;56.47
30730;BME280;17476;48.458;7.928;2022-12-16T13:20:36;99632.16;;;7.79;57.85
30730;BME280;17476;48.458;7.928;2022-12-16T13:23:38;99638.69;;;7.83;58.58
30730;BME280;17476;48.458;7.928;2022-12-16T13:26:26;99643.19;;;7.73;57.48
30730;BME280;17476;48.458;7.928;2022-12-16T13:29:37;99648.91;;;7.76;56.49
30730;BME280;17476;48.458;7.928;2022-12-16T13:32:26;99645.38;;;7.85;57.16
30730;BME280;17476;48.458;7.928;2022-12-16T13:38:19;99654.88;;;7.94;57.25
30730;BME280;17476;48.458;7.928;2022-12-16T13:44:11;99663.66;;;7.93;55.90
30730;BME280;17476;48.458;7.928;2022-12-16T13:46:56;99664.75;;;7.91;57.19
30730;BME280;17476;48.458;7.928;2022-12-16T13:49:46;99673.88;;;7.87;55.99
30730;BME280;17476;48.458;7.928;2022-12-16T13:52:45;99678.72;;;7.82;56.11
30730;BME280;17476;48.458;7.928;2022-12-16T13:55:39;99677.38;;;7.78;56.54
30730;BME280;17476;48.458;7.928;2022-12-16T13:58:43;99682.88;;;7.92;55.12
30730;BME280;17476;48.458;7.928;2022-12-16T14:02:00;99686.84;;;7.61;57.18
30730;BME280;17476;48.458;7.928;2022-12-16T14:04:52;99697.78;;;7.29;58.03
30730;BME280;17476;48.458;7.928;2022-12-16T14:07:39;99712.88;;;6.80;60.21
30730;BME280;17476;48.458;7.928;2022-12-16T14:10:43;99712.00;;;6.62;61.33
30730;BME280;17476;48.458;7.928;2022-12-16T14:17:22;99715.53;;;6.33;60.09
30730;BME280;17476;48.458;7.928;2022-12-16T14:20:38;99716.25;;;6.25;60.06
30730;BME280;17476;48.458;7.928;2022-12-16T14:23:46;99719.44;;;6.10;61.45
30730;BME280;17476;48.458;7.928;2022-12-16T14:26:35;99735.16;;;5.98;62.16
30730;BME280;17476;48.458;7.928;2022-12-16T14:29:31;99735.97;;;5.80;62.61
30730;BME280;17476;48.458;7.928;2022-12-16T14:32:30;99748.53;;;5.55;63.28
30730;BME280;17476;48.458;7.928;2022-12-16T14:35:22;99748.38;;;5.37;65.18
30730;BME280;17476;48.458;7.928;2022-12-16T14:38:27;99751.34;;;5.13;66.01
30730;BME280;17476;48.458;7.928;2022-12-16T14:41:20;99754.44;;;4.98;67.00
30730;BME280;17476;48.458;7.928;2022-12-16T14:44:23;99758.91;;;4.86;67.43
30730;BME280;17476;48.458;7.928;2022-12-16T14:47:19;99764.09;;;4.86;66.76
30730;BME280;17476;48.458;7.928;2022-12-16T14:50:28;99767.63;;;4.75;68.98
30730;BME280;17476;48.458;7.928;2022-12-16T14:53:30;99770.66;;;4.59;68.64
30730;BME280;17476;48.458;7.928;2022-12-16T14:56:21;99777.88;;;4.56;68.06
30730;BME280;17476;48.458;7.928;2022-12-16T14:59:16;99781.97;;;4.58;68.86
30730;BME280;17476;48.458;7.928;2022-12-16T15:02:29;99785.78;;;4.54;69.92
30730;BME280;17476;48.458;7.928;2022-12-16T15:05:14;99784.97;;;4.33;68.57
30730;BME280;17476;48.458;7.928;2022-12-16T15:07:59;99791.53;;;4.16;68.83
30730;BME280;17476;48.458;7.928;2022-12-16T15:10:44;99798.09;;;3.99;70.53
30730;BME280;17476;48.458;7.928;2022-12-16T15:13:29;99794.75;;;3.88;70.69
30730;BME280;17476;48.458;7.928;2022-12-16T15:16:17;99804.31;;;3.76;70.94
30730;BME280;17476;48.458;7.928;2022-12-16T15:19:04;99808.00;;;3.62;71.95
30730;BME280;17476;48.458;7.928;2022-12-16T15:21:48;99822.97;;;3.47;72.52
30730;BME280;17476;48.458;7.928;2022-12-16T15:24:36;99824.53;;;3.27;73.70
30730;BME280;17476;48.458;7.928;2022-12-16T15:27:24;99823.16;;;3.12;74.53
30730;BME280;17476;48.458;7.928;2022-12-16T15:30:42;99843.22;;;2.97;74.72
30730;BME280;17476;48.458;7.928;2022-12-16T15:33:31;99845.81;;;2.86;75.85
30730;BME280;17476;48.458;7.928;2022-12-16T15:36:25;99849.91;;;2.66;76.48
30730;BME280;17476;48.458;7.928;2022-12-16T15:39:22;99861.81;;;2.56;76.79
30730;BME280;17476;48.458;7.928;2022-12-16T15:42:24;99857.13;;;2.39;78.42
30730;BME280;17476;48.458;7.928;2022-12-16T15:45:28;99859.88;;;2.25;79.43
30730;BME280;17476;48.458;7.928;2022-12-16T15:48:32;99876.03;;;2.15;79.34
30730;BME280;17476;48.458;7.928;2022-12-16T15:51:31;99868.13;;;2.06;79.41
30730;BME280;17476;48.458;7.928;2022-12-16T15:54:22;99880.66;;;1.99;79.60
30730;BME280;17476;48.458;7.928;2022-12-16T15:57:31;99876.06;;;1.91;79.94
30730;BME280;17476;48.458;7.928;2022-12-16T16:00:30;99882.91;;;1.80;81.38
30730;BME280;17476;48.458;7.928;2022-12-16T16:03:30;99878.41;;;1.71;81.49
30730;BME280;17476;48.458;7.928;2022-12-16T16:06:22;99889.16;;;1.64;81.57
30730;BME280;17476;48.458;7.928;2022-12-16T16:09:13;99905.03;;;1.58;81.80
30730;BME280;17476;48.458;7.928;2022-12-16T16:11:58;99908.97;;;1.51;82.21
30730;BME280;17476;48.458;7.928;2022-12-16T16:14:42;99906.00;;;1.45;82.51
30730;BME280;17476;48.458;7.928;2022-12-16T16:17:27;99915.91;;;1.38;83.42
30730;BME280;17476;48.458;7.928;2022-12-16T16:20:16;99920.66;;;1.31;82.99
30730;BME280;17476;48.458;7.928;2022-12-16T16:23:01;99923.53;;;1.27;83.56